Kanarmoor — FS4492 — position and weather

sailwx.info

Track history (hours):
 
Tides and Currents Weather Stations Pressure Air Temp Water Temp Dewpoint Dewpoint Depression Visibility Wind Speed Wind Dir Waves Ship Positions

Kanarmoor

Last reported at 2018-May-24 20:58 UTC. Time now 2018-May-25 22:40 UTC.
Position N 47°49' W 004°23'.

Length 16 m.

Type: Fishing. MMSI: 228213700.

Date/timePositionNaut miles runAvg speedWind from/ knotsBaromVisibWave heightAir tempDewpointWater temp
2018-May-24 20:58N 47°49' W 004°23'3 3.4
2018-May-24 19:58N 47°52' W 004°24'3 2.4
2018-May-24 18:38N 47°49' W 004°23'0 0.0
2018-May-23 23:58N 47°49' W 004°23'5 4.6
2018-May-23 22:58N 47°54' W 004°23'2 2.3
2018-May-23 21:58N 47°55' W 004°26'3 2.3
2018-May-23 20:53N 47°53' W 004°24'0 0.4
2018-May-23 19:58N 47°53' W 004°24'4 3.1
2018-May-23 18:43N 47°49' W 004°23'0 0.0
2018-May-23 02:53N 47°49' W 004°23'6 6.2
2018-May-23 01:58N 47°55' W 004°24'2 1.5
2018-May-23 00:59N 47°53' W 004°23'2 1.8
2018-May-22 23:59N 47°55' W 004°25'6 4.6
2018-May-22 22:44N 47°56' W 004°33'5 9.0
2018-May-22 22:07N 47°57' W 004°41'2 9.2
2018-May-22 21:57N 47°57' W 004°43'4 9.1
2018-May-22 21:30N 47°59' W 004°49'2 4.7
2018-May-22 21:00N 48°01' W 004°50'0 0.3
2018-May-22 20:30N 48°01' W 004°51'0 0.8
2018-May-22 20:00N 48°00' W 004°51'2 3.6
2018-May-22 19:30N 47°59' W 004°50'5 9.1
2018-May-22 19:00N 47°56' W 004°45'16 7.2
2018-May-22 16:44N 47°49' W 004°23'0 0.0
2018-May-22 03:53N 47°49' W 004°23'0 0.2
2018-May-22 02:43N 47°49' W 004°23'5 6.1
2018-May-22 01:58N 47°53' W 004°24'2 2.0
2018-May-22 00:58N 47°55' W 004°25'10 4.8
2018-May-21 22:48N 47°55' W 004°40'3 9.0
2018-May-21 22:30N 47°56' W 004°44'4 9.0
2018-May-21 22:01N 47°57' W 004°50'2 3.8
2018-May-21 21:30N 47°59' W 004°52'1 2.0
2018-May-21 21:00N 48°00' W 004°52'1 1.6
2018-May-21 20:31N 48°00' W 004°51'1 1.0
2018-May-21 20:00N 48°01' W 004°51'3 5.1
2018-May-21 19:30N 47°59' W 004°49'5 8.7
2018-May-21 18:56N 47°56' W 004°43'  
2018-May-18 01:33N 47°49' W 004°23'0 0.0
2018-May-18 01:10N 47°49' W 004°23'0 0.0
2018-May-18 00:00N 47°49' W 004°23'4 7.5
2018-May-17 23:28N 47°50' W 004°28'5 9.0
2018-May-17 22:53N 47°53' W 004°36'4 9.0
2018-May-17 22:24N 47°55' W 004°41'4 9.2
2018-May-17 22:00N 47°57' W 004°46'4 7.9
2018-May-17 21:30N 47°59' W 004°51'1 2.0
2018-May-17 21:01N 47°58' W 004°52'0 0.9
2018-May-17 20:30N 47°58' W 004°52'3 5.2
2018-May-17 20:00N 47°58' W 004°49'4 7.3
2018-May-17 19:29N 47°57' W 004°43'7 7.9
2018-May-17 18:33N 47°53' W 004°34'8 8.3
2018-May-17 17:33N 47°49' W 004°24'1 1.1
2018-May-17 16:59N 47°49' W 004°23'2 0.1
2018-May-16 23:58N 47°51' W 004°23'1 1.1
2018-May-16 22:58N 47°50' W 004°24'4 3.8
2018-May-16 21:58N 47°54' W 004°24'2 2.1
2018-May-16 20:58N 47°52' W 004°23'2 1.8
2018-May-16 19:58N 47°50' W 004°24'1 0.1
2018-May-16 09:43N 47°49' W 004°23'0 0.0
2018-May-16 00:52N 47°49' W 004°23'0 0.0
2018-May-16 00:26N 47°49' W 004°23'1 1.5
2018-May-16 00:00N 47°49' W 004°24'7 6.2
2018-May-15 22:54N 47°55' W 004°25'4 4.7
2018-May-15 21:58N 47°51' W 004°23'2 2.0
2018-May-15 20:58N 47°53' W 004°24'4 3.2
2018-May-15 19:48N 47°50' W 004°24'1 0.1
2018-May-15 03:48N 47°49' W 004°23'2 3.2
2018-May-15 03:18N 47°50' W 004°24'0 0.9
2018-May-15 02:58N 47°51' W 004°24'3 5.2
2018-May-15 02:27N 47°54' W 004°24'4 8.5
2018-May-15 01:58N 47°57' W 004°28'3 4.5
2018-May-15 01:13N 47°54' W 004°24'2 7.7
2018-May-15 00:57N 47°52' W 004°23'1 1.9
2018-May-15 00:23N 47°51' W 004°22'1 2.0
2018-May-14 23:58N 47°51' W 004°22'1 1.1
2018-May-14 23:19N 47°51' W 004°22'2 6.1
2018-May-14 22:57N 47°49' W 004°24'0 0.6
2018-May-14 22:07N 47°49' W 004°24'0 0.3
2018-May-14 21:53N 47°49' W 004°24'5 6.0
2018-May-14 20:58N 47°54' W 004°24'  
Track history (hours):
 
Tides and Currents Weather Stations Pressure Air Temp Water Temp Dewpoint Dewpoint Depression Visibility Wind Speed Wind Dir Waves Ship Positions

Kanarmoor

Last reported at 2018-May-24 20:58 UTC. Time now 2018-May-25 22:40 UTC.
Position N 47°49' W 004°23'.

Length 16 m.

Type: Fishing. MMSI: 228213700.

Date/timePositionNaut miles runAvg speedWind from/ knotsBaromVisibWave heightAir tempDewpointWater temp
2018-May-24 20:58N 47°49' W 004°23'3 3.4
2018-May-24 19:58N 47°52' W 004°24'3 2.4
2018-May-24 18:38N 47°49' W 004°23'0 0.0
2018-May-23 23:58N 47°49' W 004°23'5 4.6
2018-May-23 22:58N 47°54' W 004°23'2 2.3
2018-May-23 21:58N 47°55' W 004°26'3 2.3
2018-May-23 20:53N 47°53' W 004°24'0 0.4
2018-May-23 19:58N 47°53' W 004°24'4 3.1
2018-May-23 18:43N 47°49' W 004°23'0 0.0
2018-May-23 02:53N 47°49' W 004°23'6 6.2
2018-May-23 01:58N 47°55' W 004°24'2 1.5
2018-May-23 00:59N 47°53' W 004°23'2 1.8
2018-May-22 23:59N 47°55' W 004°25'6 4.6
2018-May-22 22:44N 47°56' W 004°33'5 9.0
2018-May-22 22:07N 47°57' W 004°41'2 9.2
2018-May-22 21:57N 47°57' W 004°43'4 9.1
2018-May-22 21:30N 47°59' W 004°49'2 4.7
2018-May-22 21:00N 48°01' W 004°50'0 0.3
2018-May-22 20:30N 48°01' W 004°51'0 0.8
2018-May-22 20:00N 48°00' W 004°51'2 3.6
2018-May-22 19:30N 47°59' W 004°50'5 9.1
2018-May-22 19:00N 47°56' W 004°45'16 7.2
2018-May-22 16:44N 47°49' W 004°23'0 0.0
2018-May-22 03:53N 47°49' W 004°23'0 0.2
2018-May-22 02:43N 47°49' W 004°23'5 6.1
2018-May-22 01:58N 47°53' W 004°24'2 2.0
2018-May-22 00:58N 47°55' W 004°25'10 4.8
2018-May-21 22:48N 47°55' W 004°40'3 9.0
2018-May-21 22:30N 47°56' W 004°44'4 9.0
2018-May-21 22:01N 47°57' W 004°50'2 3.8
2018-May-21 21:30N 47°59' W 004°52'1 2.0
2018-May-21 21:00N 48°00' W 004°52'1 1.6
2018-May-21 20:31N 48°00' W 004°51'1 1.0
2018-May-21 20:00N 48°01' W 004°51'3 5.1
2018-May-21 19:30N 47°59' W 004°49'5 8.7
2018-May-21 18:56N 47°56' W 004°43'  
2018-May-18 01:33N 47°49' W 004°23'0 0.0
2018-May-18 01:10N 47°49' W 004°23'0 0.0
2018-May-18 00:00N 47°49' W 004°23'4 7.5
2018-May-17 23:28N 47°50' W 004°28'5 9.0
2018-May-17 22:53N 47°53' W 004°36'4 9.0
2018-May-17 22:24N 47°55' W 004°41'4 9.2
2018-May-17 22:00N 47°57' W 004°46'4 7.9
2018-May-17 21:30N 47°59' W 004°51'1 2.0
2018-May-17 21:01N 47°58' W 004°52'0 0.9
2018-May-17 20:30N 47°58' W 004°52'3 5.2
2018-May-17 20:00N 47°58' W 004°49'4 7.3
2018-May-17 19:29N 47°57' W 004°43'7 7.9
2018-May-17 18:33N 47°53' W 004°34'8 8.3
2018-May-17 17:33N 47°49' W 004°24'1 1.1
2018-May-17 16:59N 47°49' W 004°23'2 0.1
2018-May-16 23:58N 47°51' W 004°23'1 1.1
2018-May-16 22:58N 47°50' W 004°24'4 3.8
2018-May-16 21:58N 47°54' W 004°24'2 2.1
2018-May-16 20:58N 47°52' W 004°23'2 1.8
2018-May-16 19:58N 47°50' W 004°24'1 0.1
2018-May-16 09:43N 47°49' W 004°23'0 0.0
2018-May-16 00:52N 47°49' W 004°23'0 0.0
2018-May-16 00:26N 47°49' W 004°23'1 1.5
2018-May-16 00:00N 47°49' W 004°24'7 6.2
2018-May-15 22:54N 47°55' W 004°25'4 4.7
2018-May-15 21:58N 47°51' W 004°23'2 2.0
2018-May-15 20:58N 47°53' W 004°24'4 3.2
2018-May-15 19:48N 47°50' W 004°24'1 0.1
2018-May-15 03:48N 47°49' W 004°23'2 3.2
2018-May-15 03:18N 47°50' W 004°24'0 0.9
2018-May-15 02:58N 47°51' W 004°24'3 5.2
2018-May-15 02:27N 47°54' W 004°24'4 8.5
2018-May-15 01:58N 47°57' W 004°28'3 4.5
2018-May-15 01:13N 47°54' W 004°24'2 7.7
2018-May-15 00:57N 47°52' W 004°23'1 1.9
2018-May-15 00:23N 47°51' W 004°22'1 2.0
2018-May-14 23:58N 47°51' W 004°22'1 1.1
2018-May-14 23:19N 47°51' W 004°22'2 6.1
2018-May-14 22:57N 47°49' W 004°24'0 0.6
2018-May-14 22:07N 47°49' W 004°24'0 0.3
2018-May-14 21:53N 47°49' W 004°24'5 6.0
2018-May-14 20:58N 47°54' W 004°24'  

Dump ship's entire track history